sensor_id;sensor_type;location;lat;lon;timestamp;pressure;altitude;pressure_sealevel;temperature;humidity
20909;BME280;10614;53.198;6.570;2023-08-08T00:01:29;101223.00;;;13.58;nan
20909;BME280;10614;53.198;6.570;2023-08-08T00:03:31;101204.81;;;13.50;nan
20909;BME280;10614;53.198;6.570;2023-08-08T00:05:32;101205.34;;;13.59;nan
20909;BME280;10614;53.198;6.570;2023-08-08T00:07:34;101208.84;;;13.59;nan
20909;BME280;10614;53.198;6.570;2023-08-08T00:09:36;101197.63;;;13.54;nan
20909;BME280;10614;53.198;6.570;2023-08-08T00:11:39;101210.84;;;13.54;nan
20909;BME280;10614;53.198;6.570;2023-08-08T00:13:41;101190.47;;;13.37;nan
20909;BME280;10614;53.198;6.570;2023-08-08T00:15:43;101176.81;;;13.27;nan
20909;BME280;10614;53.198;6.570;2023-08-08T00:17:44;101203.38;;;13.43;nan
20909;BME280;10614;53.198;6.570;2023-08-08T00:19:46;101185.50;;;13.29;nan
20909;BME280;10614;53.198;6.570;2023-08-08T00:21:48;101176.91;;;13.24;nan
20909;BME280;10614;53.198;6.570;2023-08-08T00:23:48;101183.13;;;13.23;nan
20909;BME280;10614;53.198;6.570;2023-08-08T00:25:50;101189.22;;;13.25;nan
20909;BME280;10614;53.198;6.570;2023-08-08T00:27:54;101186.56;;;13.25;nan
20909;BME280;10614;53.198;6.570;2023-08-08T00:29:56;101184.84;;;13.24;nan
20909;BME280;10614;53.198;6.570;2023-08-08T00:31:57;101180.50;;;13.23;nan
20909;BME280;10614;53.198;6.570;2023-08-08T00:33:59;101201.25;;;13.33;nan
20909;BME280;10614;53.198;6.570;2023-08-08T00:36:01;101195.09;;;13.32;nan
20909;BME280;10614;53.198;6.570;2023-08-08T00:38:03;101166.75;;;13.15;nan
20909;BME280;10614;53.198;6.570;2023-08-08T00:40:06;101194.31;;;13.30;nan
20909;BME280;10614;53.198;6.570;2023-08-08T00:42:07;101175.41;;;13.19;nan
20909;BME280;10614;53.198;6.570;2023-08-08T00:44:10;101175.28;;;13.22;nan
20909;BME280;10614;53.198;6.570;2023-08-08T00:46:12;101152.00;;;13.11;nan
20909;BME280;10614;53.198;6.570;2023-08-08T00:48:13;101182.28;;;13.23;nan
20909;BME280;10614;53.198;6.570;2023-08-08T00:50:15;101157.34;;;13.09;nan
20909;BME280;10614;53.198;6.570;2023-08-08T00:52:18;101182.09;;;13.27;nan
20909;BME280;10614;53.198;6.570;2023-08-08T00:54:20;101160.63;;;13.15;nan
20909;BME280;10614;53.198;6.570;2023-08-08T00:56:23;101151.19;;;13.09;nan
20909;BME280;10614;53.198;6.570;2023-08-08T00:58:25;101170.78;;;13.24;nan
20909;BME280;10614;53.198;6.570;2023-08-08T01:00:28;101179.66;;;13.23;nan
20909;BME280;10614;53.198;6.570;2023-08-08T01:02:30;101168.41;;;13.18;nan
20909;BME280;10614;53.198;6.570;2023-08-08T01:04:31;101147.88;;;13.04;nan
20909;BME280;10614;53.198;6.570;2023-08-08T01:06:38;101132.22;;;12.99;nan
20909;BME280;10614;53.198;6.570;2023-08-08T01:08:46;101167.59;;;13.16;nan
20909;BME280;10614;53.198;6.570;2023-08-08T01:10:48;101163.31;;;13.13;nan
20909;BME280;10614;53.198;6.570;2023-08-08T01:12:53;101144.59;;;12.99;nan
20909;BME280;10614;53.198;6.570;2023-08-08T01:14:57;101167.06;;;13.09;nan
20909;BME280;10614;53.198;6.570;2023-08-08T01:17:02;101136.88;;;12.94;nan
20909;BME280;10614;53.198;6.570;2023-08-08T01:19:06;101161.88;;;13.06;nan
20909;BME280;10614;53.198;6.570;2023-08-08T01:21:10;101161.03;;;13.05;nan
20909;BME280;10614;53.198;6.570;2023-08-08T01:23:16;101149.03;;;12.98;nan
20909;BME280;10614;53.198;6.570;2023-08-08T01:25:22;101152.41;;;13.02;nan
20909;BME280;10614;53.198;6.570;2023-08-08T01:27:24;101135.03;;;12.96;nan
20909;BME280;10614;53.198;6.570;2023-08-08T01:29:27;101139.25;;;13.00;nan
20909;BME280;10614;53.198;6.570;2023-08-08T01:31:29;101128.25;;;12.91;nan
20909;BME280;10614;53.198;6.570;2023-08-08T01:33:30;101124.75;;;12.90;nan
20909;BME280;10614;53.198;6.570;2023-08-08T01:35:37;101143.53;;;13.03;nan
20909;BME280;10614;53.198;6.570;2023-08-08T01:37:44;101118.53;;;12.91;nan
20909;BME280;10614;53.198;6.570;2023-08-08T01:39:48;101138.88;;;13.08;nan
20909;BME280;10614;53.198;6.570;2023-08-08T01:41:55;101115.72;;;12.94;nan
20909;BME280;10614;53.198;6.570;2023-08-08T01:43:58;101136.88;;;13.13;nan
20909;BME280;10614;53.198;6.570;2023-08-08T01:46:00;101111.75;;;13.04;nan
20909;BME280;10614;53.198;6.570;2023-08-08T01:48:06;101114.31;;;13.06;nan
20909;BME280;10614;53.198;6.570;2023-08-08T01:50:08;101115.19;;;13.06;nan
20909;BME280;10614;53.198;6.570;2023-08-08T01:52:10;101121.75;;;13.17;nan
20909;BME280;10614;53.198;6.570;2023-08-08T01:54:12;101135.47;;;13.25;nan
20909;BME280;10614;53.198;6.570;2023-08-08T01:56:14;101106.91;;;13.14;nan
20909;BME280;10614;53.198;6.570;2023-08-08T01:58:17;101119.13;;;13.17;nan
20909;BME280;10614;53.198;6.570;2023-08-08T02:00:20;101128.22;;;13.30;nan
20909;BME280;10614;53.198;6.570;2023-08-08T02:02:21;101129.09;;;13.30;nan
20909;BME280;10614;53.198;6.570;2023-08-08T02:13:04;101097.25;;;13.32;nan
20909;BME280;10614;53.198;6.570;2023-08-08T02:15:08;101113.78;;;13.37;nan
20909;BME280;10614;53.198;6.570;2023-08-08T02:17:10;101090.44;;;13.28;nan
20909;BME280;10614;53.198;6.570;2023-08-08T02:19:11;101111.38;;;13.33;nan
20909;BME280;10614;53.198;6.570;2023-08-08T02:21:16;101111.78;;;13.42;nan
20909;BME280;10614;53.198;6.570;2023-08-08T02:23:18;101088.63;;;13.28;nan
20909;BME280;10614;53.198;6.570;2023-08-08T02:25:23;101074.81;;;13.22;nan
20909;BME280;10614;53.198;6.570;2023-08-08T02:27:27;101094.34;;;13.38;nan
20909;BME280;10614;53.198;6.570;2023-08-08T02:29:29;101099.34;;;13.44;nan
20909;BME280;10614;53.198;6.570;2023-08-08T02:31:32;101106.66;;;13.39;nan
20909;BME280;10614;53.198;6.570;2023-08-08T02:33:33;101083.38;;;13.27;nan
20909;BME280;10614;53.198;6.570;2023-08-08T02:35:36;101066.41;;;13.14;nan
20909;BME280;10614;53.198;6.570;2023-08-08T02:37:38;101063.44;;;13.20;nan
20909;BME280;10614;53.198;6.570;2023-08-08T02:39:41;101069.31;;;13.26;nan
20909;BME280;10614;53.198;6.570;2023-08-08T02:41:43;101058.38;;;13.15;nan
20909;BME280;10614;53.198;6.570;2023-08-08T02:43:45;101090.00;;;13.37;nan
20909;BME280;10614;53.198;6.570;2023-08-08T02:45:47;101053.03;;;13.17;nan
20909;BME280;10614;53.198;6.570;2023-08-08T02:47:50;101054.91;;;13.15;nan
20909;BME280;10614;53.198;6.570;2023-08-08T02:49:53;101054.09;;;13.13;nan
20909;BME280;10614;53.198;6.570;2023-08-08T02:51:55;101042.06;;;13.07;nan
20909;BME280;10614;53.198;6.570;2023-08-08T02:53:57;101043.19;;;13.01;nan
20909;BME280;10614;53.198;6.570;2023-08-08T02:55:59;101059.38;;;13.13;nan
20909;BME280;10614;53.198;6.570;2023-08-08T02:58:01;101082.41;;;13.29;nan
20909;BME280;10614;53.198;6.570;2023-08-08T03:00:04;101053.03;;;13.17;nan
20909;BME280;10614;53.198;6.570;2023-08-08T03:02:06;101044.59;;;13.08;nan
20909;BME280;10614;53.198;6.570;2023-08-08T03:04:09;101069.75;;;13.17;nan
20909;BME280;10614;53.198;6.570;2023-08-08T03:06:11;101080.91;;;13.24;nan
20909;BME280;10614;53.198;6.570;2023-08-08T03:08:13;101068.03;;;13.16;nan
20909;BME280;10614;53.198;6.570;2023-08-08T03:10:14;101055.38;;;13.04;nan
20909;BME280;10614;53.198;6.570;2023-08-08T03:12:17;101075.09;;;13.16;nan
20909;BME280;10614;53.198;6.570;2023-08-08T03:14:19;101050.25;;;13.01;nan
20909;BME280;10614;53.198;6.570;2023-08-08T03:16:22;101050.19;;;13.02;nan
20909;BME280;10614;53.198;6.570;2023-08-08T03:18:23;101073.47;;;13.13;nan
20909;BME280;10614;53.198;6.570;2023-08-08T03:20:27;101064.19;;;13.04;nan
20909;BME280;10614;53.198;6.570;2023-08-08T03:22:29;101059.97;;;13.00;nan
20909;BME280;10614;53.198;6.570;2023-08-08T03:24:31;101081.53;;;13.10;nan
20909;BME280;10614;53.198;6.570;2023-08-08T03:26:33;101056.59;;;12.97;nan
20909;BME280;10614;53.198;6.570;2023-08-08T03:28:35;101043.59;;;12.92;nan
20909;BME280;10614;53.198;6.570;2023-08-08T03:30:37;101029.91;;;12.84;nan
20909;BME280;10614;53.198;6.570;2023-08-08T03:32:40;101067.84;;;13.02;nan
20909;BME280;10614;53.198;6.570;2023-08-08T03:34:43;101066.97;;;13.01;nan
20909;BME280;10614;53.198;6.570;2023-08-08T03:36:46;101058.53;;;12.93;nan
20909;BME280;10614;53.198;6.570;2023-08-08T03:38:48;101062.03;;;12.94;nan
20909;BME280;10614;53.198;6.570;2023-08-08T03:40:51;101043.13;;;12.84;nan
20909;BME280;10614;53.198;6.570;2023-08-08T03:42:52;101061.97;;;12.95;nan
20909;BME280;10614;53.198;6.570;2023-08-08T03:44:53;101050.84;;;12.88;nan
20909;BME280;10614;53.198;6.570;2023-08-08T03:46:55;101043.13;;;12.84;nan
20909;BME280;10614;53.198;6.570;2023-08-08T03:48:57;101034.66;;;12.76;nan
20909;BME280;10614;53.198;6.570;2023-08-08T03:50:59;101038.09;;;12.78;nan
20909;BME280;10614;53.198;6.570;2023-08-08T03:53:02;101057.03;;;12.87;nan
20909;BME280;10614;53.198;6.570;2023-08-08T03:55:05;101043.91;;;12.86;nan
20909;BME280;10614;53.198;6.570;2023-08-08T03:57:07;101020.97;;;12.67;nan
20909;BME280;10614;53.198;6.570;2023-08-08T03:59:08;101026.00;;;12.74;nan
20909;BME280;10614;53.198;6.570;2023-08-08T04:01:10;101058.91;;;12.85;nan
20909;BME280;10614;53.198;6.570;2023-08-08T04:03:12;101013.22;;;12.64;nan
20909;BME280;10614;53.198;6.570;2023-08-08T04:05:13;101020.03;;;12.68;nan
20909;BME280;10614;53.198;6.570;2023-08-08T04:07:15;101044.97;;;12.82;nan
20909;BME280;10614;53.198;6.570;2023-08-08T04:09:18;100996.91;;;12.55;nan
20909;BME280;10614;53.198;6.570;2023-08-08T04:11:20;101029.81;;;12.66;nan
20909;BME280;10614;53.198;6.570;2023-08-08T04:13:22;101029.75;;;12.68;nan
20909;BME280;10614;53.198;6.570;2023-08-08T04:15:23;101012.69;;;12.56;nan
20909;BME280;10614;53.198;6.570;2023-08-08T04:17:25;101001.41;;;12.53;nan
20909;BME280;10614;53.198;6.570;2023-08-08T04:19:27;101003.91;;;12.56;nan
20909;BME280;10614;53.198;6.570;2023-08-08T04:21:29;101001.47;;;12.51;nan
20909;BME280;10614;53.198;6.570;2023-08-08T04:23:32;101028.13;;;12.65;nan
20909;BME280;10614;53.198;6.570;2023-08-08T04:25:35;101020.47;;;12.59;nan
20909;BME280;10614;53.198;6.570;2023-08-08T04:27:38;101042.75;;;12.73;nan
20909;BME280;10614;53.198;6.570;2023-08-08T04:29:40;101025.19;;;12.72;nan
20909;BME280;10614;53.198;6.570;2023-08-08T04:31:43;101024.19;;;12.74;nan
20909;BME280;10614;53.198;6.570;2023-08-08T04:33:45;101032.91;;;12.76;nan
20909;BME280;10614;53.198;6.570;2023-08-08T04:35:47;101011.31;;;12.66;nan
20909;BME280;10614;53.198;6.570;2023-08-08T04:37:50;100997.47;;;12.61;nan
20909;BME280;10614;53.198;6.570;2023-08-08T04:39:51;101021.25;;;12.80;nan
20909;BME280;10614;53.198;6.570;2023-08-08T04:41:55;100974.06;;;12.54;nan
20909;BME280;10614;53.198;6.570;2023-08-08T04:43:57;101028.97;;;12.85;nan
20909;BME280;10614;53.198;6.570;2023-08-08T04:45:58;101015.22;;;12.78;nan
20909;BME280;10614;53.198;6.570;2023-08-08T04:48:00;101030.53;;;12.89;nan
20909;BME280;10614;53.198;6.570;2023-08-08T04:50:03;101015.75;;;12.85;nan
20909;BME280;10614;53.198;6.570;2023-08-08T04:52:05;101030.97;;;12.99;nan
20909;BME280;10614;53.198;6.570;2023-08-08T04:54:08;101016.75;;;13.01;nan
20909;BME280;10614;53.198;6.570;2023-08-08T04:56:09;100971.22;;;12.77;nan
20909;BME280;10614;53.198;6.570;2023-08-08T04:58:13;101022.47;;;13.11;nan
20909;BME280;10614;53.198;6.570;2023-08-08T05:00:18;100996.50;;;13.02;nan
20909;BME280;10614;53.198;6.570;2023-08-08T05:02:20;100992.06;;;13.02;nan
20909;BME280;10614;53.198;6.570;2023-08-08T05:04:22;100996.28;;;13.06;nan
20909;BME280;10614;53.198;6.570;2023-08-08T05:06:24;100988.47;;;13.03;nan
20909;BME280;10614;53.198;6.570;2023-08-08T05:08:26;101011.31;;;13.23;nan
20909;BME280;10614;53.198;6.570;2023-08-08T05:10:27;101006.69;;;13.28;nan
20909;BME280;10614;53.198;6.570;2023-08-08T05:12:43;101015.19;;;13.35;nan
20909;BME280;10614;53.198;6.570;2023-08-08T05:14:46;100999.88;;;13.23;nan
20909;BME280;10614;53.198;6.570;2023-08-08T05:16:48;100984.31;;;13.17;nan
20909;BME280;10614;53.198;6.570;2023-08-08T05:18:50;101001.59;;;13.24;nan
20909;BME280;10614;53.198;6.570;2023-08-08T05:20:52;101002.09;;;13.32;nan
20909;BME280;10614;53.198;6.570;2023-08-08T05:22:54;101019.00;;;13.47;nan
20909;BME280;10614;53.198;6.570;2023-08-08T05:24:58;101001.00;;;13.36;nan
20909;BME280;10614;53.198;6.570;2023-08-08T05:27:00;100986.47;;;13.27;nan
20909;BME280;10614;53.198;6.570;2023-08-08T05:29:05;101012.16;;;13.43;nan
20909;BME280;10614;53.198;6.570;2023-08-08T05:31:08;100994.81;;;13.37;nan
20909;BME280;10614;53.198;6.570;2023-08-08T05:33:10;100995.59;;;13.39;nan
20909;BME280;10614;53.198;6.570;2023-08-08T05:35:13;100986.88;;;13.37;nan
20909;BME280;10614;53.198;6.570;2023-08-08T05:37:15;100992.22;;;13.36;nan
20909;BME280;10614;53.198;6.570;2023-08-08T05:39:18;100991.16;;;13.40;nan
20909;BME280;10614;53.198;6.570;2023-08-08T05:41:20;100985.09;;;13.38;nan
20909;BME280;10614;53.198;6.570;2023-08-08T05:43:22;101010.84;;;13.51;nan
20909;BME280;10614;53.198;6.570;2023-08-08T05:45:24;100996.13;;;13.46;nan
20909;BME280;10614;53.198;6.570;2023-08-08T05:47:27;101001.34;;;13.47;nan
20909;BME280;10614;53.198;6.570;2023-08-08T05:49:30;101006.97;;;13.59;nan
20909;BME280;10614;53.198;6.570;2023-08-08T05:51:32;101006.19;;;13.57;nan
20909;BME280;10614;53.198;6.570;2023-08-08T05:53:35;101009.69;;;13.57;nan
20909;BME280;10614;53.198;6.570;2023-08-08T05:55:42;100985.41;;;13.49;nan
20909;BME280;10614;53.198;6.570;2023-08-08T05:57:45;100988.69;;;13.54;nan
20909;BME280;10614;53.198;6.570;2023-08-08T05:59:48;100999.72;;;13.62;nan
20909;BME280;10614;53.198;6.570;2023-08-08T06:01:50;100980.81;;;13.52;nan
20909;BME280;10614;53.198;6.570;2023-08-08T06:03:54;100995.06;;;13.67;nan
20909;BME280;10614;53.198;6.570;2023-08-08T06:05:55;100977.41;;;13.68;nan
20909;BME280;10614;53.198;6.570;2023-08-08T06:08:00;101008.06;;;13.89;nan
20909;BME280;10614;53.198;6.570;2023-08-08T06:10:01;101012.94;;;13.97;nan
20909;BME280;10614;53.198;6.570;2023-08-08T06:12:09;101018.09;;;14.00;nan
20909;BME280;10614;53.198;6.570;2023-08-08T06:14:10;101008.38;;;14.01;nan
20909;BME280;10614;53.198;6.570;2023-08-08T06:16:11;100994.53;;;13.96;nan
20909;BME280;10614;53.198;6.570;2023-08-08T06:18:14;101001.34;;;14.00;nan
20909;BME280;10614;53.198;6.570;2023-08-08T06:20:18;101016.84;;;14.07;nan
20909;BME280;10614;53.198;6.570;2023-08-08T06:22:21;100992.56;;;13.99;nan
20909;BME280;10614;53.198;6.570;2023-08-08T06:24:24;100985.47;;;14.00;nan
20909;BME280;10614;53.198;6.570;2023-08-08T06:26:27;101014.09;;;14.26;nan
20909;BME280;10614;53.198;6.570;2023-08-08T06:28:29;101007.59;;;14.32;nan
20909;BME280;10614;53.198;6.570;2023-08-08T06:30:31;100984.69;;;14.15;nan
20909;BME280;10614;53.198;6.570;2023-08-08T06:32:35;100991.97;;;14.27;nan
20909;BME280;10614;53.198;6.570;2023-08-08T06:34:37;101003.69;;;14.39;nan
20909;BME280;10614;53.198;6.570;2023-08-08T06:36:41;100968.63;;;14.18;nan
20909;BME280;10614;53.198;6.570;2023-08-08T06:38:44;100998.41;;;14.39;nan
20909;BME280;10614;53.198;6.570;2023-08-08T06:40:46;100982.69;;;14.36;nan
20909;BME280;10614;53.198;6.570;2023-08-08T06:42:49;100991.59;;;14.51;nan
20909;BME280;10614;53.198;6.570;2023-08-08T06:44:51;100995.19;;;14.50;nan
20909;BME280;10614;53.198;6.570;2023-08-08T06:46:54;101017.03;;;14.71;nan
20909;BME280;10614;53.198;6.570;2023-08-08T06:48:59;101013.38;;;14.73;nan
20909;BME280;10614;53.198;6.570;2023-08-08T06:51:01;101021.06;;;14.78;nan
20909;BME280;10614;53.198;6.570;2023-08-08T06:53:04;100953.72;;;14.49;nan
20909;BME280;10614;53.198;6.570;2023-08-08T06:55:08;101019.53;;;14.90;nan
20909;BME280;10614;53.198;6.570;2023-08-08T06:57:10;100989.69;;;14.86;nan
20909;BME280;10614;53.198;6.570;2023-08-08T06:59:12;100999.97;;;14.92;nan
20909;BME280;10614;53.198;6.570;2023-08-08T07:01:15;100954.56;;;14.67;nan
20909;BME280;10614;53.198;6.570;2023-08-08T07:03:18;100992.84;;;14.93;nan
20909;BME280;10614;53.198;6.570;2023-08-08T07:05:30;100968.34;;;14.89;nan
20909;BME280;10614;53.198;6.570;2023-08-08T07:07:32;100985.75;;;15.09;nan
20909;BME280;10614;53.198;6.570;2023-08-08T07:09:37;100992.66;;;15.12;nan
20909;BME280;10614;53.198;6.570;2023-08-08T07:11:39;100996.34;;;15.25;nan
20909;BME280;10614;53.198;6.570;2023-08-08T07:13:41;100978.44;;;15.29;nan
20909;BME280;10614;53.198;6.570;2023-08-08T07:15:48;101019.06;;;15.45;nan
20909;BME280;10614;53.198;6.570;2023-08-08T07:17:50;100994.19;;;15.48;nan
20909;BME280;10614;53.198;6.570;2023-08-08T07:19:53;101012.53;;;15.67;nan
20909;BME280;10614;53.198;6.570;2023-08-08T07:21:57;100986.41;;;15.59;nan
20909;BME280;10614;53.198;6.570;2023-08-08T07:23:59;100991.47;;;15.63;nan
20909;BME280;10614;53.198;6.570;2023-08-08T07:26:04;100971.00;;;15.66;nan
20909;BME280;10614;53.198;6.570;2023-08-08T07:28:06;100996.28;;;15.87;nan
20909;BME280;10614;53.198;6.570;2023-08-08T07:30:10;100981.16;;;16.03;nan
20909;BME280;10614;53.198;6.570;2023-08-08T07:32:12;100975.47;;;15.95;nan
20909;BME280;10614;53.198;6.570;2023-08-08T07:34:14;101012.47;;;16.13;nan
20909;BME280;10614;53.198;6.570;2023-08-08T07:36:16;100959.06;;;16.03;nan
20909;BME280;10614;53.198;6.570;2023-08-08T07:38:18;100959.16;;;16.01;nan
20909;BME280;10614;53.198;6.570;2023-08-08T07:40:20;100938.84;;;16.00;nan
20909;BME280;10614;53.198;6.570;2023-08-08T07:42:24;100956.31;;;16.19;nan
20909;BME280;10614;53.198;6.570;2023-08-08T07:44:26;100977.94;;;16.27;nan
20909;BME280;10614;53.198;6.570;2023-08-08T07:46:35;100987.81;;;16.25;nan
20909;BME280;10614;53.198;6.570;2023-08-08T07:48:37;100941.22;;;16.05;nan
20909;BME280;10614;53.198;6.570;2023-08-08T07:50:40;100984.22;;;16.40;nan
20909;BME280;10614;53.198;6.570;2023-08-08T07:52:43;100979.16;;;16.50;nan
20909;BME280;10614;53.198;6.570;2023-08-08T07:54:45;100957.84;;;16.23;nan
20909;BME280;10614;53.198;6.570;2023-08-08T07:56:49;100966.09;;;16.33;nan
20909;BME280;10614;53.198;6.570;2023-08-08T07:58:55;100984.47;;;16.50;nan
20909;BME280;10614;53.198;6.570;2023-08-08T08:00:58;100983.25;;;16.56;nan
20909;BME280;10614;53.198;6.570;2023-08-08T08:03:01;100969.41;;;16.51;nan
20909;BME280;10614;53.198;6.570;2023-08-08T08:05:05;100983.06;;;16.59;nan
20909;BME280;10614;53.198;6.570;2023-08-08T08:07:09;100948.53;;;16.44;nan
20909;BME280;10614;53.198;6.570;2023-08-08T08:09:14;100981.81;;;16.64;nan
20909;BME280;10614;53.198;6.570;2023-08-08T08:11:19;100978.47;;;16.75;nan
20909;BME280;10614;53.198;6.570;2023-08-08T08:13:23;100992.56;;;16.63;nan
20909;BME280;10614;53.198;6.570;2023-08-08T08:15:29;100998.13;;;16.73;nan
20909;BME280;10614;53.198;6.570;2023-08-08T08:17:32;100994.38;;;16.62;nan
20909;BME280;10614;53.198;6.570;2023-08-08T08:19:36;100962.66;;;16.45;nan
20909;BME280;10614;53.198;6.570;2023-08-08T08:21:41;101000.59;;;16.76;nan
20909;BME280;10614;53.198;6.570;2023-08-08T08:23:46;100965.69;;;16.67;nan
20909;BME280;10614;53.198;6.570;2023-08-08T08:25:50;101004.31;;;16.87;nan
20909;BME280;10614;53.198;6.570;2023-08-08T08:27:56;100972.06;;;16.79;nan
20909;BME280;10614;53.198;6.570;2023-08-08T08:30:02;100977.19;;;16.54;nan
20909;BME280;10614;53.198;6.570;2023-08-08T08:32:10;101000.13;;;16.55;nan
20909;BME280;10614;53.198;6.570;2023-08-08T08:34:14;100979.28;;;16.34;nan
20909;BME280;10614;53.198;6.570;2023-08-08T08:36:16;100986.97;;;16.39;nan
20909;BME280;10614;53.198;6.570;2023-08-08T08:38:19;100983.16;;;16.43;nan
20909;BME280;10614;53.198;6.570;2023-08-08T08:40:25;100969.97;;;16.56;nan
20909;BME280;10614;53.198;6.570;2023-08-08T08:42:31;100968.44;;;16.66;nan
20909;BME280;10614;53.198;6.570;2023-08-08T08:44:33;101017.25;;;16.79;nan
20909;BME280;10614;53.198;6.570;2023-08-08T08:46:38;100997.09;;;16.61;nan
20909;BME280;10614;53.198;6.570;2023-08-08T08:48:43;100959.25;;;16.43;nan
20909;BME280;10614;53.198;6.570;2023-08-08T08:50:48;100955.66;;;16.30;nan
20909;BME280;10614;53.198;6.570;2023-08-08T08:52:51;100957.16;;;16.48;nan
20909;BME280;10614;53.198;6.570;2023-08-08T08:54:57;100972.53;;;16.72;nan
20909;BME280;10614;53.198;6.570;2023-08-08T08:56:59;100948.13;;;16.79;nan
20909;BME280;10614;53.198;6.570;2023-08-08T08:59:02;100952.25;;;16.98;nan
20909;BME280;10614;53.198;6.570;2023-08-08T09:01:06;100972.47;;;17.00;nan
20909;BME280;10614;53.198;6.570;2023-08-08T09:03:09;100973.66;;;17.09;nan
20909;BME280;10614;53.198;6.570;2023-08-08T09:05:13;100978.84;;;16.98;nan
20909;BME280;10614;53.198;6.570;2023-08-08T09:07:18;100956.31;;;17.03;nan
20909;BME280;10614;53.198;6.570;2023-08-08T09:09:22;100954.34;;;16.93;nan
20909;BME280;10614;53.198;6.570;2023-08-08T09:11:25;100953.09;;;16.98;nan
20909;BME280;10614;53.198;6.570;2023-08-08T09:13:35;100966.16;;;16.88;nan
20909;BME280;10614;53.198;6.570;2023-08-08T09:15:38;100955.69;;;16.71;nan
20909;BME280;10614;53.198;6.570;2023-08-08T09:17:42;100983.44;;;16.81;nan
20909;BME280;10614;53.198;6.570;2023-08-08T09:19:45;100958.78;;;16.51;nan
20909;BME280;10614;53.198;6.570;2023-08-08T09:21:49;100951.00;;;16.33;nan
20909;BME280;10614;53.198;6.570;2023-08-08T09:23:51;100989.63;;;16.53;nan
20909;BME280;10614;53.198;6.570;2023-08-08T09:25:54;101013.63;;;16.52;nan
20909;BME280;10614;53.198;6.570;2023-08-08T09:27:55;101001.66;;;16.59;nan
20909;BME280;10614;53.198;6.570;2023-08-08T09:29:59;100954.78;;;16.43;nan
20909;BME280;10614;53.198;6.570;2023-08-08T09:32:02;100972.31;;;16.75;nan
20909;BME280;10614;53.198;6.570;2023-08-08T09:34:05;100949.44;;;16.86;nan
20909;BME280;10614;53.198;6.570;2023-08-08T09:36:14;100988.13;;;17.32;nan
20909;BME280;10614;53.198;6.570;2023-08-08T09:38:19;100951.75;;;17.33;nan
20909;BME280;10614;53.198;6.570;2023-08-08T09:40:28;100966.47;;;17.51;nan
20909;BME280;10614;53.198;6.570;2023-08-08T09:42:35;100963.09;;;17.62;nan
20909;BME280;10614;53.198;6.570;2023-08-08T09:44:40;100979.81;;;17.77;nan
20909;BME280;10614;53.198;6.570;2023-08-08T09:46:46;100969.13;;;17.51;nan
20909;BME280;10614;53.198;6.570;2023-08-08T09:48:50;100984.91;;;17.67;nan
20909;BME280;10614;53.198;6.570;2023-08-08T09:51:06;100970.75;;;17.79;nan
20909;BME280;10614;53.198;6.570;2023-08-08T09:53:15;100935.59;;;17.48;nan
20909;BME280;10614;53.198;6.570;2023-08-08T09:55:26;100955.75;;;17.65;nan
20909;BME280;10614;53.198;6.570;2023-08-08T09:57:32;100987.53;;;17.81;nan
20909;BME280;10614;53.198;6.570;2023-08-08T09:59:37;100993.03;;;17.65;nan
20909;BME280;10614;53.198;6.570;2023-08-08T10:01:41;101014.50;;;17.49;nan
20909;BME280;10614;53.198;6.570;2023-08-08T10:03:45;100978.91;;;16.83;nan
20909;BME280;10614;53.198;6.570;2023-08-08T10:05:47;100996.16;;;16.48;nan
20909;BME280;10614;53.198;6.570;2023-08-08T10:07:49;100993.94;;;15.67;nan
20909;BME280;10614;53.198;6.570;2023-08-08T10:09:51;101034.94;;;14.99;nan
20909;BME280;10614;53.198;6.570;2023-08-08T10:11:57;101037.44;;;14.18;nan
20909;BME280;10614;53.198;6.570;2023-08-08T10:14:02;101037.91;;;13.74;nan
20909;BME280;10614;53.198;6.570;2023-08-08T10:16:09;101027.66;;;13.68;nan
20909;BME280;10614;53.198;6.570;2023-08-08T10:23:11;100981.13;;;13.46;nan
20909;BME280;10614;53.198;6.570;2023-08-08T10:25:23;101022.63;;;13.98;nan
20909;BME280;10614;53.198;6.570;2023-08-08T10:27:31;101019.41;;;14.26;nan
20909;BME280;10614;53.198;6.570;2023-08-08T10:29:33;100998.16;;;14.61;nan
20909;BME280;10614;53.198;6.570;2023-08-08T10:31:53;100947.94;;;14.42;nan
20909;BME280;10614;53.198;6.570;2023-08-08T10:34:19;100950.78;;;14.55;nan
20909;BME280;10614;53.198;6.570;2023-08-08T10:37:08;101005.50;;;14.72;nan
20909;BME280;10614;53.198;6.570;2023-08-08T11:32:04;100961.72;;;17.02;nan
20909;BME280;10614;53.198;6.570;2023-08-08T11:34:07;101020.97;;;17.45;nan
20909;BME280;10614;53.198;6.570;2023-08-08T11:36:10;100975.94;;;17.42;nan
20909;BME280;10614;53.198;6.570;2023-08-08T11:38:15;100989.56;;;17.50;nan
20909;BME280;10614;53.198;6.570;2023-08-08T11:40:18;101012.06;;;17.72;nan
20909;BME280;10614;53.198;6.570;2023-08-08T11:42:24;101008.34;;;17.62;nan
20909;BME280;10614;53.198;6.570;2023-08-08T11:44:31;101015.50;;;17.74;nan
20909;BME280;10614;53.198;6.570;2023-08-08T11:49:58;101011.97;;;18.13;nan
20909;BME280;10614;53.198;6.570;2023-08-08T12:04:22;101009.75;;;17.80;nan
20909;BME280;10614;53.198;6.570;2023-08-08T12:09:59;100947.38;;;17.97;nan
20909;BME280;10614;53.198;6.570;2023-08-08T12:12:53;100975.19;;;18.19;nan
20909;BME280;10614;53.198;6.570;2023-08-08T12:35:40;101019.19;;;18.37;nan
20909;BME280;10614;53.198;6.570;2023-08-08T12:37:42;101002.78;;;18.30;nan
20909;BME280;10614;53.198;6.570;2023-08-08T12:39:45;101061.63;;;18.53;nan
20909;BME280;10614;53.198;6.570;2023-08-08T12:41:46;101055.75;;;18.35;nan
20909;BME280;10614;53.198;6.570;2023-08-08T12:43:48;101018.53;;;17.95;nan
20909;BME280;10614;53.198;6.570;2023-08-08T12:45:51;101065.53;;;17.96;nan
20909;BME280;10614;53.198;6.570;2023-08-08T12:47:53;101022.00;;;17.70;nan
20909;BME280;10614;53.198;6.570;2023-08-08T12:49:55;101036.34;;;17.67;nan